Time;durP1;ratioP1;P1;durP2;ratioP2;P2;SDS_P1;SDS_P2;PMS_P1;PMS_P2;Temp;Humidity;BMP_temperature;BMP_pressure;BME280_temperature;BME280_humidity;BME280_pressure;Samples;Min_cycle;Max_cycle;Signal;HPM_P1;HPM_P2
2023/06/28 00:03:28;;;;;;;0.10;0.10;;;;;;;;;;5855432;23;20487;-76
2023/06/28 00:05:57;;;;;;;0.55;0.50;;;;;;;;;;5010565;28;20066;-76
2023/06/28 00:11:05;;;;;;;0.25;0.25;;;;;;;;;;5697690;23;20062;-75
2023/06/28 00:13:32;;;;;;;0.10;0.10;;;;;;;;;;5001993;28;20120;-77
2023/06/28 00:16:02;;;;;;;0.20;0.20;;;;;;;;;;4996874;28;20058;-76
2023/06/28 00:18:30;;;;;;;0.20;0.20;;;;;;;;;;5005050;28;20867;-77
2023/06/28 00:20:56;;;;;;;0.10;0.10;;;;;;;;;;5005627;28;20058;-77
2023/06/28 00:23:23;;;;;;;0.10;0.10;;;;;;;;;;5004614;28;20046;-77
2023/06/28 00:25:49;;;;;;;0.10;0.10;;;;;;;;;;5006219;28;20054;-76
2023/06/28 00:28:16;;;;;;;0.10;0.10;;;;;;;;;;5005916;28;20525;-76
2023/06/28 00:30:42;;;;;;;0.10;0.10;;;;;;;;;;5005685;28;20055;-77
2023/06/28 00:33:09;;;;;;;0.20;0.20;;;;;;;;;;5004729;28;20058;-77
2023/06/28 00:35:36;;;;;;;0.10;0.10;;;;;;;;;;5006186;28;20050;-76
2023/06/28 00:38:02;;;;;;;0.10;0.10;;;;;;;;;;5005484;28;20093;-77
2023/06/28 00:40:29;;;;;;;0.10;0.10;;;;;;;;;;5005517;28;20058;-78
2023/06/28 00:42:55;;;;;;;0.10;0.10;;;;;;;;;;5004422;28;20113;-76
2023/06/28 00:45:21;;;;;;;0.20;0.20;;;;;;;;;;5005649;28;20470;-78
2023/06/28 00:47:48;;;;;;;0.10;0.10;;;;;;;;;;5005264;28;20054;-77
2023/06/28 00:50:15;;;;;;;0.57;0.57;;;;;;;;;;5005678;28;20047;-76
2023/06/28 00:52:44;;;;;;;0.10;0.10;;;;;;;;;;5004725;28;21107;-77
2023/06/28 00:55:11;;;;;;;0.10;0.10;;;;;;;;;;5006287;28;20522;-77
2023/06/28 00:58:31;;;;;;;0.10;0.10;;;;;;;;;;5283953;22;20055;-96
2023/06/28 01:01:57;;;;;;;0.10;0.10;;;;;;;;;;5008449;28;20072;-96
2023/06/28 01:26:06;;;;;;;0.10;0.10;;;;;;;;;;4986189;23;20641;-77
2023/06/28 01:28:33;;;;;;;1.13;0.47;;;;;;;;;;5029398;28;20050;-77
2023/06/28 01:31:00;;;;;;;0.10;0.10;;;;;;;;;;5023082;28;20476;-76
2023/06/28 01:33:26;;;;;;;0.10;0.10;;;;;;;;;;5024164;28;20057;-77
2023/06/28 01:35:53;;;;;;;0.50;0.32;;;;;;;;;;5016365;28;20058;-77
2023/06/28 01:38:20;;;;;;;0.20;0.20;;;;;;;;;;5019392;28;20050;-76
2023/06/28 01:40:48;;;;;;;0.82;0.25;;;;;;;;;;5023787;28;20060;-77
2023/06/28 01:43:15;;;;;;;0.20;0.20;;;;;;;;;;5023065;28;20570;-76
2023/06/28 01:45:41;;;;;;;3.83;0.40;;;;;;;;;;5020729;28;20446;-77
2023/06/28 01:48:08;;;;;;;0.10;0.10;;;;;;;;;;5022778;28;20205;-76
2023/06/28 01:50:34;;;;;;;0.13;0.13;;;;;;;;;;5023585;28;20231;-77
2023/06/28 01:53:02;;;;;;;0.10;0.10;;;;;;;;;;5015518;28;20683;-77
2023/06/28 01:55:29;;;;;;;0.10;0.10;;;;;;;;;;5018770;28;20074;-76
2023/06/28 01:57:56;;;;;;;0.10;0.10;;;;;;;;;;5018606;28;20056;-77
2023/06/28 02:00:23;;;;;;;0.10;0.10;;;;;;;;;;5023451;28;20605;-76
2023/06/28 02:02:50;;;;;;;0.20;0.20;;;;;;;;;;5022730;28;20842;-76
2023/06/28 02:05:17;;;;;;;0.10;0.10;;;;;;;;;;5022769;28;20089;-77
2023/06/28 02:07:45;;;;;;;0.10;0.10;;;;;;;;;;5020712;28;20068;-76
2023/06/28 02:10:12;;;;;;;0.10;0.10;;;;;;;;;;5012808;28;20667;-78
2023/06/28 02:12:38;;;;;;;0.40;0.30;;;;;;;;;;5010838;28;20061;-78
2023/06/28 02:15:05;;;;;;;0.10;0.10;;;;;;;;;;5020918;28;20051;-76
2023/06/28 02:17:32;;;;;;;0.10;0.10;;;;;;;;;;5020699;28;20361;-76
2023/06/28 02:19:58;;;;;;;0.20;0.20;;;;;;;;;;5022227;28;20050;-76
2023/06/28 02:22:25;;;;;;;0.10;0.10;;;;;;;;;;5022811;28;20576;-76
2023/06/28 02:24:52;;;;;;;0.20;0.20;;;;;;;;;;5021454;28;20050;-77
2023/06/28 02:32:39;;;;;;;0.10;0.10;;;;;;;;;;4947298;28;20093;-75
2023/06/28 02:40:30;;;;;;;0.10;0.10;;;;;;;;;;4999134;23;20062;-75
2023/06/28 02:42:57;;;;;;;1.85;0.40;;;;;;;;;;5002226;28;20065;-74
2023/06/28 02:45:23;;;;;;;0.10;0.10;;;;;;;;;;5002396;28;20073;-74
2023/06/28 02:50:24;;;;;;;0.17;0.17;;;;;;;;;;4972294;28;20042;-75
2023/06/28 02:52:51;;;;;;;0.22;0.22;;;;;;;;;;5021534;28;20513;-76
2023/06/28 03:01:53;;;;;;;0.10;0.10;;;;;;;;;;5014804;28;20053;-77
2023/06/28 03:09:36;;;;;;;0.10;0.10;;;;;;;;;;5421835;22;20054;-74
2023/06/28 03:12:06;;;;;;;0.17;0.17;;;;;;;;;;5012502;28;20116;-76
2023/06/28 03:14:33;;;;;;;0.10;0.10;;;;;;;;;;5011737;28;20113;-76
2023/06/28 03:17:00;;;;;;;0.20;0.20;;;;;;;;;;5006943;28;20488;-75
2023/06/28 03:19:26;;;;;;;0.10;0.10;;;;;;;;;;5006088;28;20141;-76
2023/06/28 03:21:53;;;;;;;0.10;0.10;;;;;;;;;;5284856;22;20077;-74
2023/06/28 03:24:19;;;;;;;0.10;0.10;;;;;;;;;;4986619;28;20058;-74
2023/06/28 03:26:46;;;;;;;0.10;0.10;;;;;;;;;;4995040;28;20117;-74
2023/06/28 03:29:12;;;;;;;0.10;0.10;;;;;;;;;;4986443;28;20614;-75
2023/06/28 03:31:39;;;;;;;0.10;0.10;;;;;;;;;;4982050;28;20058;-75
2023/06/28 03:34:06;;;;;;;0.10;0.10;;;;;;;;;;4986068;28;20086;-74
2023/06/28 03:36:34;;;;;;;0.10;0.10;;;;;;;;;;4984440;28;20065;-75
2023/06/28 03:39:01;;;;;;;0.35;0.32;;;;;;;;;;4985916;28;20063;-74
2023/06/28 03:41:27;;;;;;;0.20;0.20;;;;;;;;;;4985505;28;20058;-74
2023/06/28 03:43:54;;;;;;;0.10;0.10;;;;;;;;;;4983737;28;20143;-75
2023/06/28 03:46:20;;;;;;;0.22;0.22;;;;;;;;;;4978151;28;20058;-74
2023/06/28 03:48:47;;;;;;;0.10;0.10;;;;;;;;;;4977924;28;20090;-75
2023/06/28 03:51:13;;;;;;;0.10;0.10;;;;;;;;;;4985475;28;20667;-75
2023/06/28 03:53:40;;;;;;;0.28;0.28;;;;;;;;;;4984831;28;20063;-75
2023/06/28 03:56:06;;;;;;;0.20;0.20;;;;;;;;;;4984293;28;20554;-75
2023/06/28 03:58:32;;;;;;;0.10;0.10;;;;;;;;;;4984202;28;20129;-75
2023/06/28 04:01:02;;;;;;;0.10;0.10;;;;;;;;;;4985320;28;20505;-74
2023/06/28 04:03:28;;;;;;;0.10;0.10;;;;;;;;;;4984058;28;20141;-75
2023/06/28 04:05:55;;;;;;;0.10;0.10;;;;;;;;;;4984381;28;20585;-75
2023/06/28 04:08:23;;;;;;;0.20;0.20;;;;;;;;;;4984558;28;20122;-75
2023/06/28 04:10:50;;;;;;;0.10;0.10;;;;;;;;;;4984107;28;20397;-75
2023/06/28 04:13:16;;;;;;;0.10;0.10;;;;;;;;;;4985062;28;20094;-75
2023/06/28 04:15:43;;;;;;;0.17;0.17;;;;;;;;;;4982309;28;20059;-75
2023/06/28 04:18:09;;;;;;;0.10;0.10;;;;;;;;;;4985082;28;20063;-75
2023/06/28 04:20:36;;;;;;;0.10;0.10;;;;;;;;;;4979168;28;20063;-75
2023/06/28 04:23:02;;;;;;;0.10;0.10;;;;;;;;;;4972739;28;20047;-75
2023/06/28 04:25:28;;;;;;;0.45;0.45;;;;;;;;;;4961890;28;20047;-75
2023/06/28 04:27:55;;;;;;;0.13;0.13;;;;;;;;;;4965199;28;20060;-75
2023/06/28 04:30:24;;;;;;;0.10;0.10;;;;;;;;;;4965745;28;20106;-75
2023/06/28 04:32:51;;;;;;;0.20;0.17;;;;;;;;;;4961403;28;20053;-75
2023/06/28 04:35:21;;;;;;;0.10;0.10;;;;;;;;;;4965742;28;20435;-75
2023/06/28 04:37:47;;;;;;;0.10;0.10;;;;;;;;;;4964868;28;20059;-75
2023/06/28 04:40:15;;;;;;;0.20;0.20;;;;;;;;;;4964059;28;20495;-75
2023/06/28 04:42:42;;;;;;;0.20;0.20;;;;;;;;;;4964722;28;20091;-75
2023/06/28 04:45:09;;;;;;;0.10;0.10;;;;;;;;;;4965342;28;20059;-75
2023/06/28 04:47:36;;;;;;;0.13;0.13;;;;;;;;;;4945326;28;20055;-75
2023/06/28 04:50:03;;;;;;;0.10;0.10;;;;;;;;;;4965586;28;20074;-75
2023/06/28 04:52:29;;;;;;;0.10;0.10;;;;;;;;;;4963899;28;20056;-75
2023/06/28 04:54:56;;;;;;;0.10;0.10;;;;;;;;;;4962439;28;20325;-75
2023/06/28 04:57:25;;;;;;;0.10;0.10;;;;;;;;;;4964605;28;20078;-75
2023/06/28 04:59:53;;;;;;;0.10;0.10;;;;;;;;;;4964580;28;20051;-75
2023/06/28 05:02:24;;;;;;;0.10;0.10;;;;;;;;;;4965174;28;20062;-75
2023/06/28 05:04:51;;;;;;;0.10;0.10;;;;;;;;;;4963443;28;20284;-75
2023/06/28 05:07:18;;;;;;;0.73;0.70;;;;;;;;;;4964402;28;20689;-75
2023/06/28 05:09:44;;;;;;;0.45;0.45;;;;;;;;;;4964309;28;20110;-75
2023/06/28 05:12:11;;;;;;;0.10;0.10;;;;;;;;;;4951862;28;20473;-75
2023/06/28 05:14:37;;;;;;;0.10;0.10;;;;;;;;;;4945250;28;20586;-75
2023/06/28 05:17:03;;;;;;;0.10;0.10;;;;;;;;;;4964035;28;20102;-75
2023/06/28 05:19:30;;;;;;;1.38;0.50;;;;;;;;;;4946728;28;20138;-75
2023/06/28 05:21:56;;;;;;;0.10;0.10;;;;;;;;;;4963073;28;20062;-75
2023/06/28 05:24:23;;;;;;;0.10;0.10;;;;;;;;;;4980365;28;20055;-75
2023/06/28 05:26:49;;;;;;;0.10;0.10;;;;;;;;;;4964826;28;20051;-75
2023/06/28 05:29:15;;;;;;;0.10;0.10;;;;;;;;;;4978220;28;20499;-75
2023/06/28 05:31:42;;;;;;;0.20;0.20;;;;;;;;;;4982866;28;20051;-75
2023/06/28 05:34:11;;;;;;;0.10;0.10;;;;;;;;;;4984379;28;20055;-75
2023/06/28 05:36:37;;;;;;;0.10;0.10;;;;;;;;;;4983054;28;20536;-75
2023/06/28 05:39:03;;;;;;;0.20;0.20;;;;;;;;;;4977789;28;20055;-75
2023/06/28 05:41:30;;;;;;;0.10;0.10;;;;;;;;;;4977527;28;20051;-74
2023/06/28 05:43:56;;;;;;;0.10;0.10;;;;;;;;;;4978862;28;20113;-75
2023/06/28 05:46:23;;;;;;;0.10;0.10;;;;;;;;;;4980126;28;20102;-75
2023/06/28 05:48:49;;;;;;;0.90;0.50;;;;;;;;;;4983186;28;20608;-75
2023/06/28 05:51:16;;;;;;;0.10;0.10;;;;;;;;;;4989843;28;20106;-75
2023/06/28 05:53:42;;;;;;;1.27;1.08;;;;;;;;;;4976999;28;20066;-74
2023/06/28 05:56:09;;;;;;;0.10;0.10;;;;;;;;;;4986994;28;20747;-74
2023/06/28 05:58:35;;;;;;;0.10;0.10;;;;;;;;;;4987047;28;20129;-73
2023/06/28 06:01:01;;;;;;;0.10;0.10;;;;;;;;;;4986676;28;20685;-74
2023/06/28 06:03:30;;;;;;;0.10;0.10;;;;;;;;;;4986744;28;20062;-73
2023/06/28 06:05:57;;;;;;;0.13;0.13;;;;;;;;;;4983295;28;20558;-74
2023/06/28 06:08:24;;;;;;;0.65;0.38;;;;;;;;;;4985270;28;20061;-74
2023/06/28 06:10:50;;;;;;;0.70;0.43;;;;;;;;;;4971047;28;20165;-74
2023/06/28 06:13:16;;;;;;;0.40;0.40;;;;;;;;;;4984635;28;20059;-74
2023/06/28 06:15:43;;;;;;;0.40;0.40;;;;;;;;;;4985663;28;20055;-73
2023/06/28 06:18:10;;;;;;;0.10;0.10;;;;;;;;;;4985577;28;20408;-74
2023/06/28 06:20:36;;;;;;;0.20;0.20;;;;;;;;;;4982387;28;20055;-74
2023/06/28 06:23:02;;;;;;;1.05;0.77;;;;;;;;;;4984652;28;20059;-74
2023/06/28 06:25:29;;;;;;;0.40;0.30;;;;;;;;;;4981886;28;20186;-73
2023/06/28 06:27:55;;;;;;;0.40;0.25;;;;;;;;;;4969568;28;20063;-74
2023/06/28 06:30:22;;;;;;;0.25;0.25;;;;;;;;;;4986492;28;20074;-75
2023/06/28 06:32:49;;;;;;;0.70;0.57;;;;;;;;;;4985895;28;20500;-74
2023/06/28 06:35:16;;;;;;;0.10;0.10;;;;;;;;;;4985493;28;20430;-74
2023/06/28 06:37:45;;;;;;;0.60;0.40;;;;;;;;;;4976238;28;20406;-74
2023/06/28 06:40:12;;;;;;;0.40;0.35;;;;;;;;;;4985353;28;20126;-74
2023/06/28 06:42:38;;;;;;;2.05;1.10;;;;;;;;;;4980409;28;20066;-74
2023/06/28 06:45:05;;;;;;;1.20;0.32;;;;;;;;;;4984081;28;20563;-74
2023/06/28 06:47:32;;;;;;;0.10;0.10;;;;;;;;;;4984895;28;20523;-73
2023/06/28 06:49:58;;;;;;;0.13;0.13;;;;;;;;;;4985137;28;20526;-73
2023/06/28 06:52:25;;;;;;;0.20;0.20;;;;;;;;;;4985309;28;20137;-73
2023/06/28 06:54:51;;;;;;;0.38;0.30;;;;;;;;;;4972071;28;20715;-72
2023/06/28 06:57:18;;;;;;;0.10;0.10;;;;;;;;;;4980330;28;20527;-73
2023/06/28 06:59:45;;;;;;;0.38;0.38;;;;;;;;;;4979909;28;20154;-73
2023/06/28 07:02:11;;;;;;;0.10;0.10;;;;;;;;;;4984516;28;20061;-73
2023/06/28 07:04:38;;;;;;;0.63;0.63;;;;;;;;;;4985298;28;20051;-72
2023/06/28 07:07:04;;;;;;;0.10;0.10;;;;;;;;;;4986902;28;20055;-73
2023/06/28 07:09:31;;;;;;;0.20;0.20;;;;;;;;;;4985075;28;20058;-73
2023/06/28 07:11:58;;;;;;;0.30;0.30;;;;;;;;;;4975744;28;20066;-75
2023/06/28 07:14:24;;;;;;;0.20;0.20;;;;;;;;;;4982373;28;20704;-73
2023/06/28 07:16:50;;;;;;;0.10;0.10;;;;;;;;;;4982883;28;20055;-73
2023/06/28 07:19:17;;;;;;;0.65;0.30;;;;;;;;;;4984339;28;20613;-73
2023/06/28 07:21:43;;;;;;;0.20;0.20;;;;;;;;;;4976943;28;20924;-73
2023/06/28 07:24:10;;;;;;;0.28;0.25;;;;;;;;;;4965201;28;20542;-72
2023/06/28 07:26:36;;;;;;;0.30;0.30;;;;;;;;;;4966225;28;20062;-73
2023/06/28 07:29:03;;;;;;;0.45;0.32;;;;;;;;;;4980161;28;20115;-72
2023/06/28 07:31:29;;;;;;;0.25;0.20;;;;;;;;;;4984817;28;20138;-73
2023/06/28 07:33:56;;;;;;;0.38;0.25;;;;;;;;;;4987350;28;20114;-73
2023/06/28 07:36:23;;;;;;;0.10;0.10;;;;;;;;;;4987598;28;20090;-73
2023/06/28 07:38:50;;;;;;;0.13;0.13;;;;;;;;;;4986872;28;20059;-73
2023/06/28 07:41:17;;;;;;;0.20;0.20;;;;;;;;;;4987045;28;20517;-72
2023/06/28 07:43:43;;;;;;;4.72;0.25;;;;;;;;;;4984418;28;20246;-73
2023/06/28 07:46:10;;;;;;;0.47;0.20;;;;;;;;;;4986073;28;20107;-73
2023/06/28 07:48:37;;;;;;;0.30;0.30;;;;;;;;;;4984564;28;20499;-72
2023/06/28 07:51:05;;;;;;;0.17;0.17;;;;;;;;;;4986726;28;20563;-73
2023/06/28 07:53:31;;;;;;;0.63;0.52;;;;;;;;;;4981155;28;20062;-72
2023/06/28 07:55:58;;;;;;;1.02;0.52;;;;;;;;;;4974968;28;20515;-72
2023/06/28 07:58:24;;;;;;;0.30;0.30;;;;;;;;;;4984925;28;20161;-72
2023/06/28 08:00:51;;;;;;;0.20;0.20;;;;;;;;;;4984279;28;20061;-72
2023/06/28 08:03:19;;;;;;;0.10;0.10;;;;;;;;;;4986350;28;20110;-72
2023/06/28 08:05:46;;;;;;;0.15;0.15;;;;;;;;;;4984623;28;20055;-72
2023/06/28 08:08:14;;;;;;;0.35;0.35;;;;;;;;;;4983354;28;20467;-72
2023/06/28 08:10:41;;;;;;;0.70;0.50;;;;;;;;;;4976373;28;20064;-72
2023/06/28 08:13:07;;;;;;;0.30;0.30;;;;;;;;;;4984349;28;20154;-72
2023/06/28 08:15:36;;;;;;;0.65;0.40;;;;;;;;;;4977616;28;20055;-73
2023/06/28 08:18:03;;;;;;;0.20;0.20;;;;;;;;;;4973390;28;20057;-73
2023/06/28 08:20:30;;;;;;;0.35;0.35;;;;;;;;;;4972787;28;20058;-73
2023/06/28 08:22:56;;;;;;;0.10;0.10;;;;;;;;;;4976075;28;20057;-74
2023/06/28 08:25:22;;;;;;;0.20;0.20;;;;;;;;;;4982238;28;20499;-73
2023/06/28 08:27:49;;;;;;;0.38;0.20;;;;;;;;;;4986053;28;20150;-72
2023/06/28 08:30:15;;;;;;;0.50;0.50;;;;;;;;;;4984479;28;20574;-72
2023/06/28 08:32:43;;;;;;;2.60;1.20;;;;;;;;;;4979941;28;20141;-72
2023/06/28 08:35:09;;;;;;;0.15;0.15;;;;;;;;;;4972110;28;20455;-72
2023/06/28 08:37:36;;;;;;;0.20;0.20;;;;;;;;;;4981820;28;20058;-72
2023/06/28 08:40:04;;;;;;;0.10;0.10;;;;;;;;;;4973735;28;20095;-73
2023/06/28 08:42:32;;;;;;;0.10;0.10;;;;;;;;;;4981486;28;20489;-74
2023/06/28 08:45:00;;;;;;;0.30;0.28;;;;;;;;;;4984677;28;20090;-74
2023/06/28 08:47:29;;;;;;;0.10;0.10;;;;;;;;;;4987782;28;20113;-74
2023/06/28 08:49:56;;;;;;;0.22;0.22;;;;;;;;;;4985951;28;20134;-73
2023/06/28 08:52:23;;;;;;;0.43;0.35;;;;;;;;;;4979450;28;20090;-73
2023/06/28 08:54:51;;;;;;;0.15;0.15;;;;;;;;;;4982736;28;20059;-75
2023/06/28 08:57:18;;;;;;;1.35;0.55;;;;;;;;;;4985987;28;20057;-73
2023/06/28 08:59:44;;;;;;;0.28;0.28;;;;;;;;;;4978195;28;20491;-74
2023/06/28 09:02:14;;;;;;;0.20;0.20;;;;;;;;;;4984159;28;20059;-74
2023/06/28 09:04:40;;;;;;;0.10;0.10;;;;;;;;;;4979255;28;20134;-74
2023/06/28 09:07:07;;;;;;;0.10;0.10;;;;;;;;;;4972377;28;20121;-74
2023/06/28 09:09:35;;;;;;;0.25;0.25;;;;;;;;;;4974807;28;20051;-74
2023/06/28 09:12:01;;;;;;;0.20;0.20;;;;;;;;;;4978037;28;20055;-74
2023/06/28 09:14:28;;;;;;;0.10;0.10;;;;;;;;;;4975555;28;20054;-74
2023/06/28 09:16:55;;;;;;;0.30;0.30;;;;;;;;;;4982229;28;20059;-74
2023/06/28 09:19:21;;;;;;;0.32;0.30;;;;;;;;;;4980962;28;20051;-75
2023/06/28 09:21:47;;;;;;;0.30;0.30;;;;;;;;;;4985183;28;20178;-73
2023/06/28 09:24:14;;;;;;;0.10;0.10;;;;;;;;;;4980272;28;20078;-73
2023/06/28 09:26:41;;;;;;;1.73;0.45;;;;;;;;;;4977246;28;20054;-72
2023/06/28 09:29:09;;;;;;;0.20;0.20;;;;;;;;;;4978121;28;20137;-74
2023/06/28 09:31:40;;;;;;;0.30;0.30;;;;;;;;;;4978669;28;20061;-73
2023/06/28 09:34:06;;;;;;;;;;;;;;;;;;4980835;28;20058;-73
2023/06/28 09:52:46;;;;;;;0.65;0.50;;;;;;;;;;4997176;28;20057;-94
2023/06/28 09:55:15;;;;;;;0.43;0.40;;;;;;;;;;4996041;28;20440;-96
2023/06/28 09:57:42;;;;;;;0.10;0.10;;;;;;;;;;5017228;28;20057;-93
2023/06/28 10:00:10;;;;;;;0.10;0.10;;;;;;;;;;4999846;28;20062;-93
2023/06/28 10:02:52;;;;;;;0.10;0.10;;;;;;;;;;4990119;28;20051;-93
2023/06/28 10:05:24;;;;;;;0.20;0.20;;;;;;;;;;4999167;28;20513;-94
2023/06/28 10:07:51;;;;;;;5.05;0.52;;;;;;;;;;4986873;28;20061;-93
2023/06/28 10:10:19;;;;;;;0.20;0.20;;;;;;;;;;4992202;28;20621;-92
2023/06/28 10:12:47;;;;;;;0.30;0.30;;;;;;;;;;5005865;28;20058;-94
2023/06/28 10:15:19;;;;;;;0.45;0.30;;;;;;;;;;4994315;28;20578;-93
2023/06/28 10:17:46;;;;;;;0.30;0.30;;;;;;;;;;4995143;28;20921;-94
2023/06/28 10:20:15;;;;;;;0.13;0.13;;;;;;;;;;5004054;28;20053;-96
2023/06/28 10:23:04;;;;;;;0.68;0.68;;;;;;;;;;5008461;28;20097;-96
2023/06/28 10:25:30;;;;;;;0.47;0.45;;;;;;;;;;5015940;28;20631;-94
2023/06/28 10:27:59;;;;;;;0.20;0.20;;;;;;;;;;5000456;28;20053;-93
2023/06/28 10:30:29;;;;;;;0.25;0.25;;;;;;;;;;4992815;28;20338;-95
2023/06/28 10:32:59;;;;;;;0.40;0.40;;;;;;;;;;4981439;28;20079;-93
2023/06/28 10:35:26;;;;;;;0.30;0.30;;;;;;;;;;4991666;28;20049;-93
2023/06/28 10:37:57;;;;;;;0.70;0.70;;;;;;;;;;4982133;28;20061;-93
2023/06/28 10:40:25;;;;;;;1.27;0.70;;;;;;;;;;4994203;28;20069;-93
2023/06/28 10:42:53;;;;;;;2.03;1.90;;;;;;;;;;4998271;28;20503;-92
2023/06/28 10:45:33;;;;;;;1.00;0.80;;;;;;;;;;4993678;28;20046;-94
2023/06/28 10:48:03;;;;;;;0.50;0.30;;;;;;;;;;4992016;28;20093;-93
2023/06/28 10:50:41;;;;;;;0.70;0.57;;;;;;;;;;4992061;28;20697;-93
2023/06/28 10:53:21;;;;;;;0.20;0.20;;;;;;;;;;5002071;28;20061;-93
2023/06/28 10:56:06;;;;;;;0.20;0.20;;;;;;;;;;4998258;28;20235;-93
2023/06/28 10:58:40;;;;;;;0.25;0.25;;;;;;;;;;4999300;28;20058;-93
2023/06/28 11:01:08;;;;;;;0.25;0.25;;;;;;;;;;4972299;28;20058;-92
2023/06/28 11:03:39;;;;;;;;;;;;;;;;;;4980602;28;20061;-92
2023/06/28 11:06:40;;;;;;;0.73;0.52;;;;;;;;;;4909344;28;20452;-93
2023/06/28 11:09:38;;;;;;;3.42;1.95;;;;;;;;;;4909620;28;20233;-94
2023/06/28 11:12:12;;;;;;;0.45;0.45;;;;;;;;;;4992612;28;20054;-93
2023/06/28 11:14:48;;;;;;;4.43;0.80;;;;;;;;;;4987857;28;20053;-93
2023/06/28 11:17:21;;;;;;;1.05;0.55;;;;;;;;;;4996690;28;20547;-95
2023/06/28 11:20:12;;;;;;;0.63;0.38;;;;;;;;;;4990940;28;20434;-93
2023/06/28 11:22:58;;;;;;;0.22;0.22;;;;;;;;;;5003232;28;20442;-95
2023/06/28 11:25:30;;;;;;;1.45;0.57;;;;;;;;;;4993449;28;20512;-92
2023/06/28 11:27:58;;;;;;;1.27;0.63;;;;;;;;;;5003392;28;20053;-94
2023/06/28 11:30:45;;;;;;;0.90;0.47;;;;;;;;;;4980899;28;20065;-91
2023/06/28 11:33:24;;;;;;;1.65;0.82;;;;;;;;;;4997583;28;20068;-93
2023/06/28 11:39:20;;;;;;;1.30;0.75;;;;;;;;;;4973144;28;20054;-92
2023/06/28 11:41:48;;;;;;;0.30;0.28;;;;;;;;;;4983973;28;20058;-91
2023/06/28 11:44:16;;;;;;;1.05;0.80;;;;;;;;;;4990230;28;20054;-91
2023/06/28 11:46:45;;;;;;;0.32;0.25;;;;;;;;;;4982015;28;20058;-91
2023/06/28 11:49:16;;;;;;;0.57;0.50;;;;;;;;;;4987941;28;20054;-91
2023/06/28 11:51:44;;;;;;;0.73;0.47;;;;;;;;;;4989501;28;20065;-91
2023/06/28 11:54:12;;;;;;;0.43;0.40;;;;;;;;;;4984031;28;20610;-91
2023/06/28 11:56:41;;;;;;;0.75;0.30;;;;;;;;;;4984579;28;20716;-91
2023/06/28 11:59:14;;;;;;;0.80;0.50;;;;;;;;;;4986286;28;20474;-93
2023/06/28 12:01:45;;;;;;;0.47;0.35;;;;;;;;;;4985745;28;20066;-93
2023/06/28 12:04:19;;;;;;;0.43;0.38;;;;;;;;;;4988088;28;20050;-93
2023/06/28 12:07:14;;;;;;;0.20;0.20;;;;;;;;;;4985040;28;20054;-93
2023/06/28 12:09:37;;;;;;;0.80;0.60;;;;;;;;;;4987361;28;20620;-88
2023/06/28 12:14:48;;;;;;;1.00;0.80;;;;;;;;;;5050033;23;20521;-88
2023/06/28 12:27:20;;;;;;;0.25;0.25;;;;;;;;;;4982408;28;20054;-74
2023/06/28 12:29:47;;;;;;;0.82;0.60;;;;;;;;;;5002503;28;20054;-74
2023/06/28 12:32:17;;;;;;;0.63;0.40;;;;;;;;;;5003444;28;20142;-74
2023/06/28 12:34:51;;;;;;;0.28;0.28;;;;;;;;;;4998059;28;20514;-73
2023/06/28 12:37:17;;;;;;;0.65;0.50;;;;;;;;;;4999793;28;20613;-75
2023/06/28 12:39:44;;;;;;;0.52;0.40;;;;;;;;;;4996132;28;20055;-74
2023/06/28 12:42:16;;;;;;;0.70;0.43;;;;;;;;;;4999436;28;20326;-75
2023/06/28 12:44:50;;;;;;;1.23;0.60;;;;;;;;;;4994287;28;21790;-76
2023/06/28 12:47:17;;;;;;;0.88;0.60;;;;;;;;;;5010966;28;20642;-75
2023/06/28 12:49:44;;;;;;;0.50;0.40;;;;;;;;;;4997496;28;20082;-75
2023/06/28 12:52:11;;;;;;;0.65;0.50;;;;;;;;;;5001274;28;20519;-73
2023/06/28 12:54:37;;;;;;;1.38;0.70;;;;;;;;;;4992915;28;20145;-75
2023/06/28 12:57:04;;;;;;;0.70;0.52;;;;;;;;;;4989024;28;20054;-76
2023/06/28 12:59:31;;;;;;;0.90;0.57;;;;;;;;;;5004703;28;20089;-72
2023/06/28 13:01:57;;;;;;;1.10;0.65;;;;;;;;;;4997715;28;20054;-75
2023/06/28 13:04:25;;;;;;;0.75;0.43;;;;;;;;;;4999202;28;20519;-75
2023/06/28 13:06:52;;;;;;;0.60;0.40;;;;;;;;;;5001234;28;20514;-74
2023/06/28 13:09:18;;;;;;;0.88;0.30;;;;;;;;;;4996280;28;20061;-75
2023/06/28 13:11:46;;;;;;;0.47;0.40;;;;;;;;;;4997994;28;20050;-76
2023/06/28 13:14:15;;;;;;;0.55;0.40;;;;;;;;;;4992899;28;20145;-75
2023/06/28 13:16:42;;;;;;;1.30;0.57;;;;;;;;;;5001450;28;20050;-75
2023/06/28 13:19:08;;;;;;;0.52;0.43;;;;;;;;;;5001146;28;20055;-75
2023/06/28 13:21:34;;;;;;;0.30;0.30;;;;;;;;;;4999241;28;20060;-74
2023/06/28 13:24:02;;;;;;;0.60;0.38;;;;;;;;;;5001490;28;20101;-74
2023/06/28 13:26:30;;;;;;;0.65;0.65;;;;;;;;;;4996537;28;20061;-75
2023/06/28 13:28:56;;;;;;;2.13;0.50;;;;;;;;;;5001433;28;20952;-72
2023/06/28 13:31:22;;;;;;;12.30;0.70;;;;;;;;;;5004031;28;20050;-75
2023/06/28 13:33:49;;;;;;;1.33;0.65;;;;;;;;;;5003029;28;20083;-75
2023/06/28 13:36:17;;;;;;;4.82;2.80;;;;;;;;;;4989865;28;20321;-74
2023/06/28 13:38:43;;;;;;;0.50;0.50;;;;;;;;;;4996518;28;20799;-76
2023/06/28 13:41:10;;;;;;;0.63;0.45;;;;;;;;;;5002079;28;20053;-75
2023/06/28 13:43:36;;;;;;;0.63;0.52;;;;;;;;;;4997519;28;20081;-74
2023/06/28 13:46:03;;;;;;;0.77;0.40;;;;;;;;;;4995582;28;20125;-76
2023/06/28 13:48:29;;;;;;;0.40;0.40;;;;;;;;;;4997659;28;20058;-74
2023/06/28 13:50:56;;;;;;;1.40;0.73;;;;;;;;;;4997121;28;20437;-76
2023/06/28 13:53:23;;;;;;;1.77;1.25;;;;;;;;;;4992246;28;20570;-75
2023/06/28 13:55:50;;;;;;;1.48;0.75;;;;;;;;;;4992958;28;20598;-75
2023/06/28 13:58:17;;;;;;;0.98;0.40;;;;;;;;;;5002911;28;20104;-76
2023/06/28 14:00:43;;;;;;;0.63;0.43;;;;;;;;;;5004517;28;20058;-76
2023/06/28 14:03:10;;;;;;;0.40;0.30;;;;;;;;;;4997353;28;20496;-73
2023/06/28 14:05:36;;;;;;;0.90;0.60;;;;;;;;;;4997725;28;20057;-73
2023/06/28 14:08:03;;;;;;;1.45;0.60;;;;;;;;;;4999108;28;20083;-75
2023/06/28 14:10:29;;;;;;;1.02;0.68;;;;;;;;;;4997655;28;20061;-76
2023/06/28 14:12:56;;;;;;;0.75;0.55;;;;;;;;;;4998032;28;20607;-75
2023/06/28 14:15:22;;;;;;;0.98;0.65;;;;;;;;;;5002897;28;20054;-75
2023/06/28 14:17:49;;;;;;;0.30;0.30;;;;;;;;;;5002755;28;20144;-76
2023/06/28 14:20:15;;;;;;;0.95;0.60;;;;;;;;;;4999626;28;20133;-76
2023/06/28 14:22:47;;;;;;;0.60;0.40;;;;;;;;;;4997098;28;20141;-76
2023/06/28 14:25:14;;;;;;;0.20;0.20;;;;;;;;;;5000194;28;20113;-76
2023/06/28 14:27:40;;;;;;;3.30;0.73;;;;;;;;;;5001488;28;20126;-75
2023/06/28 14:30:07;;;;;;;1.77;1.00;;;;;;;;;;5003642;28;20592;-75
2023/06/28 14:32:33;;;;;;;1.45;0.88;;;;;;;;;;4995898;28;20058;-73
2023/06/28 14:35:00;;;;;;;1.35;0.65;;;;;;;;;;4999964;28;20164;-75
2023/06/28 14:37:26;;;;;;;2.95;0.50;;;;;;;;;;4997666;28;20055;-73
2023/06/28 14:39:53;;;;;;;1.33;0.80;;;;;;;;;;4987822;28;20057;-76
2023/06/28 14:42:19;;;;;;;7.38;0.90;;;;;;;;;;5003337;28;20624;-76
2023/06/28 14:44:46;;;;;;;1.70;1.23;;;;;;;;;;4997961;28;20061;-73
2023/06/28 14:47:12;;;;;;;0.40;0.30;;;;;;;;;;5000648;28;20502;-76
2023/06/28 14:49:39;;;;;;;0.68;0.52;;;;;;;;;;5000458;28;20050;-76
2023/06/28 14:52:05;;;;;;;1.90;1.00;;;;;;;;;;5002706;28;20062;-76
2023/06/28 14:54:32;;;;;;;0.95;0.40;;;;;;;;;;5000704;28;20488;-75
2023/06/28 14:57:01;;;;;;;0.65;0.47;;;;;;;;;;5000937;28;20170;-74
2023/06/28 14:59:27;;;;;;;0.93;0.63;;;;;;;;;;5005748;28;20514;-75
2023/06/28 15:01:54;;;;;;;1.25;0.52;;;;;;;;;;4994533;28;20153;-76
2023/06/28 15:04:20;;;;;;;0.50;0.50;;;;;;;;;;5003289;28;20054;-75
2023/06/28 15:06:47;;;;;;;1.45;0.88;;;;;;;;;;5004593;28;20594;-75
2023/06/28 15:09:14;;;;;;;1.63;0.82;;;;;;;;;;5000543;28;20062;-76
2023/06/28 15:11:40;;;;;;;1.75;1.35;;;;;;;;;;5007137;28;20852;-76
2023/06/28 15:14:07;;;;;;;2.08;1.45;;;;;;;;;;5003049;28;20116;-77
2023/06/28 15:16:36;;;;;;;1.95;1.02;;;;;;;;;;5001837;28;20058;-76
2023/06/28 15:19:03;;;;;;;0.88;0.68;;;;;;;;;;4994038;28;20139;-75
2023/06/28 15:21:30;;;;;;;1.23;0.45;;;;;;;;;;4997738;28;20061;-76
2023/06/28 15:23:57;;;;;;;1.05;0.85;;;;;;;;;;5008311;28;20050;-76
2023/06/28 15:26:23;;;;;;;2.05;0.95;;;;;;;;;;5001407;28;20920;-76
2023/06/28 15:28:50;;;;;;;1.38;0.70;;;;;;;;;;5002467;28;20519;-75
2023/06/28 15:31:17;;;;;;;2.08;1.00;;;;;;;;;;4994439;28;20061;-76
2023/06/28 15:33:43;;;;;;;0.93;0.50;;;;;;;;;;5006999;28;20053;-76
2023/06/28 15:36:10;;;;;;;1.42;0.50;;;;;;;;;;5003266;28;20535;-76
2023/06/28 15:38:36;;;;;;;1.08;0.52;;;;;;;;;;5002457;28;20050;-75
2023/06/28 15:41:03;;;;;;;1.65;1.40;;;;;;;;;;5004620;28;20077;-76
2023/06/28 15:43:29;;;;;;;0.85;0.73;;;;;;;;;;5003454;28;20047;-76
2023/06/28 15:45:56;;;;;;;7.80;1.05;;;;;;;;;;5007809;28;20070;-76
2023/06/28 15:48:22;;;;;;;0.65;0.40;;;;;;;;;;4999082;28;20524;-76
2023/06/28 15:50:49;;;;;;;1.30;0.80;;;;;;;;;;5008992;28;20054;-76
2023/06/28 15:53:16;;;;;;;2.40;0.60;;;;;;;;;;5002776;28;20062;-76
2023/06/28 15:55:42;;;;;;;0.50;0.40;;;;;;;;;;5003438;28;20445;-76
2023/06/28 15:58:09;;;;;;;3.75;1.40;;;;;;;;;;5006605;28;20062;-77
2023/06/28 16:00:35;;;;;;;0.25;0.25;;;;;;;;;;5002898;28;20256;-77
2023/06/28 16:03:02;;;;;;;0.75;0.50;;;;;;;;;;4991110;28;20066;-74
2023/06/28 16:05:28;;;;;;;1.17;0.57;;;;;;;;;;4996528;28;20077;-77
2023/06/28 16:07:55;;;;;;;0.95;0.85;;;;;;;;;;5008405;28;20053;-76
2023/06/28 16:10:21;;;;;;;0.75;0.57;;;;;;;;;;5010955;28;20066;-77
2023/06/28 16:12:49;;;;;;;1.35;0.90;;;;;;;;;;5005683;28;20062;-75